Current Conditions
Partly Cloudy
Conditions



Pressure
1000 (hPa) - 29.53 (inHG)
Visibility

9.7 (km) - 6.0 (miles)
Temperature
9  °C
Temperature
4  °C
Dewpoint
71  %
 Humidity
Wind Speed
35  km/h
19  kts
22  mph
9.8  m/s
Wind Direction
N
45°
E
90°
135°
S
180°
225°
W
270°
315°
 160°

South South
East
Airport Data
EHAM
Amsterdam Airport Schiphol
Metar :EHAM 021025Z 16019KT 140V200 9999 FEW021 09/04 Q1000 NOSIG
Sat 2nd March 11:25 am
Raw Metar Info
Raw METAR is the most common format in the world for the transmission of observational weather data. It is highly standardized through the International Civil Aviation Organization (ICAO), which allows it to be understood throughout most of the world.
API Info
Data Provided by
https://www.checkwx.com/weather/EHAM

Aviation Weather providing METAR, TAF, AIRMET, SIGMET and OUTLOOK Weather Reports
© Info
CSS/SVG/PHP scripts were developed by weather34.com for use in the weather34 template © 2015-2024

Guide Info provided by Metar-Wikipedia